XBRLQ XAMT-MMCU
Flight info
| Callsign | XBRLQ |
|---|---|
| Flight time | N/A |
| Altitude | 9500 |
| Route | DCT MMCU |
| Aircraft | C172/L-S/C |
Departure
| Time | N/A |
|---|---|
| Airport | XAMT |
Arrival
| Time | 2026-04-27 02:13 |
|---|---|
| Airport | General Roberto Fierro Villalobos International Airport (MMCU) |
| Time | Latitude | Longitude | Altitude | Speed | Heading |
|---|---|---|---|---|---|
| 2026-04-27 01:40 | 28.65586 | -106.89728 | 6530 ft | 0 kts | 270° |
| 2026-04-27 01:41 | 28.65586 | -106.89734 | 6530 ft | 8 kts | 266° |
| 2026-04-27 01:42 | 28.65580 | -106.89943 | 6529 ft | 42 kts | 268° |
| 2026-04-27 01:42 | 28.65584 | -106.90385 | 6526 ft | 71 kts | 270° |
| 2026-04-27 01:42 | 28.65584 | -106.91012 | 6579 ft | 84 kts | 270° |
| 2026-04-27 01:42 | 28.65590 | -106.91690 | 6708 ft | 86 kts | 270° |
| 2026-04-27 01:43 | 28.65624 | -106.92376 | 6809 ft | 89 kts | 273° |
| 2026-04-27 01:43 | 28.65658 | -106.93049 | 6966 ft | 87 kts | 274° |
| 2026-04-27 01:43 | 28.65546 | -106.93708 | 7051 ft | 92 kts | 232° |
| 2026-04-27 01:43 | 28.64965 | -106.93981 | 7204 ft | 92 kts | 187° |
| 2026-04-27 01:44 | 28.64316 | -106.93914 | 7318 ft | 99 kts | 160° |
| 2026-04-27 01:44 | 28.63730 | -106.93529 | 7408 ft | 101 kts | 126° |
| 2026-04-27 01:44 | 28.63665 | -106.92755 | 7574 ft | 98 kts | 82° |
| 2026-04-27 01:44 | 28.63756 | -106.91945 | 7629 ft | 109 kts | 80° |
| 2026-04-27 01:45 | 28.63871 | -106.91079 | 7742 ft | 112 kts | 81° |
| 2026-04-27 01:45 | 28.63982 | -106.90194 | 7856 ft | 112 kts | 81° |
| 2026-04-27 01:45 | 28.64090 | -106.89339 | 7976 ft | 108 kts | 81° |
| 2026-04-27 01:45 | 28.64198 | -106.88497 | 8093 ft | 105 kts | 81° |
| 2026-04-27 01:46 | 28.64301 | -106.87689 | 8219 ft | 105 kts | 81° |
| 2026-04-27 01:46 | 28.64383 | -106.86855 | 8341 ft | 107 kts | 84° |
| 2026-04-27 01:46 | 28.64448 | -106.86011 | 8464 ft | 106 kts | 84° |
| 2026-04-27 01:46 | 28.64513 | -106.85213 | 8594 ft | 94 kts | 84° |
| 2026-04-27 01:47 | 28.64573 | -106.84458 | 8703 ft | 97 kts | 85° |
| 2026-04-27 01:47 | 28.64615 | -106.83695 | 8828 ft | 100 kts | 86° |
| 2026-04-27 01:47 | 28.64657 | -106.82895 | 8946 ft | 100 kts | 86° |
| 2026-04-27 01:47 | 28.64705 | -106.82118 | 9075 ft | 98 kts | 85° |
| 2026-04-27 01:48 | 28.64756 | -106.81315 | 9197 ft | 102 kts | 85° |
| 2026-04-27 01:48 | 28.64809 | -106.80527 | 9319 ft | 99 kts | 85° |
| 2026-04-27 01:48 | 28.64869 | -106.79744 | 9452 ft | 100 kts | 80° |
| 2026-04-27 01:48 | 28.64985 | -106.78916 | 9507 ft | 114 kts | 80° |
| 2026-04-27 01:49 | 28.65120 | -106.77981 | 9516 ft | 126 kts | 80° |
| 2026-04-27 01:49 | 28.65269 | -106.76962 | 9516 ft | 134 kts | 80° |
| 2026-04-27 01:49 | 28.65423 | -106.75897 | 9512 ft | 137 kts | 80° |
| 2026-04-27 01:49 | 28.65580 | -106.74833 | 9510 ft | 136 kts | 80° |
| 2026-04-27 01:50 | 28.65740 | -106.73778 | 9508 ft | 136 kts | 79° |
| 2026-04-27 01:50 | 28.65906 | -106.72713 | 9507 ft | 135 kts | 79° |
| 2026-04-27 01:50 | 28.66066 | -106.71674 | 9517 ft | 135 kts | 79° |
| 2026-04-27 01:50 | 28.66232 | -106.70602 | 9509 ft | 138 kts | 79° |
| 2026-04-27 01:51 | 28.66398 | -106.69529 | 9509 ft | 137 kts | 79° |
| 2026-04-27 01:51 | 28.66563 | -106.68466 | 9506 ft | 135 kts | 79° |
| 2026-04-27 01:51 | 28.66725 | -106.67425 | 9508 ft | 135 kts | 79° |
| 2026-04-27 01:51 | 28.66889 | -106.66378 | 9504 ft | 133 kts | 79° |
| 2026-04-27 01:52 | 28.67053 | -106.65343 | 9505 ft | 132 kts | 79° |
| 2026-04-27 01:52 | 28.67218 | -106.64305 | 9504 ft | 133 kts | 79° |
| 2026-04-27 01:52 | 28.67381 | -106.63262 | 9503 ft | 134 kts | 79° |
| 2026-04-27 01:52 | 28.67547 | -106.62233 | 9506 ft | 134 kts | 79° |
| 2026-04-27 01:53 | 28.67713 | -106.61188 | 9503 ft | 133 kts | 79° |
| 2026-04-27 01:53 | 28.67873 | -106.60147 | 9508 ft | 135 kts | 79° |
| 2026-04-27 01:53 | 28.68040 | -106.59084 | 9508 ft | 136 kts | 79° |
| 2026-04-27 01:53 | 28.68207 | -106.58023 | 9510 ft | 136 kts | 79° |
| 2026-04-27 01:54 | 28.68374 | -106.56961 | 9509 ft | 136 kts | 79° |
| 2026-04-27 01:54 | 28.68539 | -106.55902 | 9506 ft | 135 kts | 79° |
| 2026-04-27 01:54 | 28.68703 | -106.54866 | 9505 ft | 133 kts | 79° |
| 2026-04-27 01:54 | 28.68866 | -106.53832 | 9504 ft | 132 kts | 79° |
| 2026-04-27 01:55 | 28.69031 | -106.52801 | 9503 ft | 132 kts | 79° |
| 2026-04-27 01:55 | 28.69194 | -106.51772 | 9502 ft | 131 kts | 79° |
| 2026-04-27 01:55 | 28.69359 | -106.50735 | 9504 ft | 133 kts | 79° |
| 2026-04-27 01:55 | 28.69524 | -106.49704 | 9503 ft | 134 kts | 79° |
| 2026-04-27 01:56 | 28.69854 | -106.47626 | 9507 ft | 133 kts | 79° |
| 2026-04-27 01:56 | 28.70022 | -106.46571 | 9507 ft | 136 kts | 79° |
| 2026-04-27 01:56 | 28.70191 | -106.45514 | 9499 ft | 135 kts | 79° |
| 2026-04-27 01:57 | 28.70355 | -106.44484 | 9506 ft | 133 kts | 79° |
| 2026-04-27 01:57 | 28.70522 | -106.43436 | 9508 ft | 136 kts | 79° |
| 2026-04-27 01:57 | 28.70691 | -106.42363 | 9514 ft | 138 kts | 79° |
| 2026-04-27 01:57 | 28.70863 | -106.41289 | 9506 ft | 136 kts | 79° |
| 2026-04-27 01:58 | 28.71034 | -106.40216 | 9512 ft | 140 kts | 79° |
| 2026-04-27 01:58 | 28.71211 | -106.39120 | 9507 ft | 140 kts | 78° |
| 2026-04-27 01:58 | 28.71391 | -106.38044 | 9514 ft | 140 kts | 79° |
| 2026-04-27 01:58 | 28.71566 | -106.36956 | 9510 ft | 137 kts | 79° |
| 2026-04-27 01:59 | 28.71741 | -106.35888 | 9505 ft | 136 kts | 79° |
| 2026-04-27 01:59 | 28.71910 | -106.34834 | 9504 ft | 135 kts | 78° |
| 2026-04-27 01:59 | 28.72072 | -106.33788 | 9501 ft | 133 kts | 79° |
| 2026-04-27 01:59 | 28.72237 | -106.32744 | 9500 ft | 134 kts | 79° |
| 2026-04-27 02:00 | 28.72346 | -106.32051 | 9504 ft | 134 kts | 79° |
| 2026-04-27 02:00 | 28.72568 | -106.30676 | 9500 ft | 132 kts | 79° |
| 2026-04-27 02:00 | 28.72734 | -106.29641 | 9499 ft | 133 kts | 79° |
| 2026-04-27 02:00 | 28.72901 | -106.28601 | 9499 ft | 133 kts | 79° |
| 2026-04-27 02:01 | 28.73013 | -106.27570 | 9478 ft | 134 kts | 95° |
| 2026-04-27 02:01 | 28.72952 | -106.26499 | 9461 ft | 136 kts | 93° |
| 2026-04-27 02:01 | 28.72925 | -106.25785 | 9450 ft | 136 kts | 90° |
| 2026-04-27 02:01 | 28.72901 | -106.24705 | 9432 ft | 136 kts | 91° |
| 2026-04-27 02:02 | 28.72872 | -106.23631 | 9475 ft | 135 kts | 92° |
| 2026-04-27 02:02 | 28.72841 | -106.22584 | 9495 ft | 132 kts | 92° |
| 2026-04-27 02:02 | 28.72811 | -106.21568 | 9497 ft | 121 kts | 92° |
| 2026-04-27 02:02 | 28.72785 | -106.20641 | 9438 ft | 117 kts | 92° |
| 2026-04-27 02:03 | 28.72761 | -106.19707 | 9306 ft | 117 kts | 92° |
| 2026-04-27 02:03 | 28.72737 | -106.18811 | 9171 ft | 111 kts | 92° |
| 2026-04-27 02:03 | 28.72716 | -106.17954 | 9038 ft | 107 kts | 92° |
| 2026-04-27 02:03 | 28.72693 | -106.17109 | 8898 ft | 105 kts | 92° |
| 2026-04-27 02:04 | 28.72669 | -106.16306 | 8762 ft | 99 kts | 92° |
| 2026-04-27 02:04 | 28.72646 | -106.15541 | 8621 ft | 94 kts | 92° |
| 2026-04-27 02:04 | 28.72628 | -106.14803 | 8490 ft | 93 kts | 92° |
| 2026-04-27 02:04 | 28.72607 | -106.14069 | 8361 ft | 94 kts | 92° |
| 2026-04-27 02:05 | 28.72587 | -106.13332 | 8234 ft | 93 kts | 91° |
| 2026-04-27 02:05 | 28.72572 | -106.12600 | 8103 ft | 91 kts | 91° |
| 2026-04-27 02:05 | 28.72555 | -106.11873 | 7977 ft | 92 kts | 92° |
| 2026-04-27 02:05 | 28.72535 | -106.11156 | 7852 ft | 91 kts | 91° |
| 2026-04-27 02:06 | 28.72515 | -106.10436 | 7725 ft | 90 kts | 92° |
| 2026-04-27 02:06 | 28.72496 | -106.09714 | 7602 ft | 91 kts | 92° |
| 2026-04-27 02:06 | 28.72472 | -106.08983 | 7476 ft | 92 kts | 92° |
| 2026-04-27 02:06 | 28.72451 | -106.08251 | 7359 ft | 93 kts | 92° |
| 2026-04-27 02:07 | 28.72430 | -106.07500 | 7242 ft | 98 kts | 92° |
| 2026-04-27 02:07 | 28.72406 | -106.06738 | 7119 ft | 95 kts | 93° |
| 2026-04-27 02:07 | 28.72387 | -106.05970 | 6996 ft | 98 kts | 92° |
| 2026-04-27 02:07 | 28.72367 | -106.05203 | 6871 ft | 95 kts | 92° |
| 2026-04-27 02:08 | 28.72344 | -106.04445 | 6748 ft | 96 kts | 92° |
| 2026-04-27 02:08 | 28.72325 | -106.03699 | 6618 ft | 94 kts | 92° |
| 2026-04-27 02:08 | 28.72300 | -106.02967 | 6489 ft | 91 kts | 95° |
| 2026-04-27 02:08 | 28.72120 | -106.02250 | 6311 ft | 96 kts | 110° |
| 2026-04-27 02:09 | 28.71907 | -106.01489 | 6083 ft | 105 kts | 108° |
| 2026-04-27 02:09 | 28.71688 | -106.00678 | 5862 ft | 112 kts | 108° |
| 2026-04-27 02:09 | 28.71455 | -105.99805 | 5632 ft | 117 kts | 108° |
| 2026-04-27 02:09 | 28.71234 | -105.98932 | 5488 ft | 107 kts | 97° |
| 2026-04-27 02:10 | 28.71491 | -105.98242 | 5424 ft | 95 kts | 29° |
| 2026-04-27 02:10 | 28.72123 | -105.98013 | 5360 ft | 100 kts | 12° |
| 2026-04-27 02:10 | 28.72803 | -105.97810 | 5284 ft | 102 kts | 12° |
| 2026-04-27 02:10 | 28.73497 | -105.97599 | 5214 ft | 104 kts | 11° |
| 2026-04-27 02:11 | 28.74196 | -105.97407 | 5162 ft | 103 kts | 17° |
| 2026-04-27 02:11 | 28.74683 | -105.96833 | 5044 ft | 109 kts | 71° |
| 2026-04-27 02:11 | 28.74636 | -105.95991 | 4973 ft | 102 kts | 100° |
| 2026-04-27 02:11 | 28.74349 | -105.95283 | 4946 ft | 100 kts | 147° |
| 2026-04-27 02:12 | 28.73687 | -105.95230 | 4817 ft | 102 kts | 208° |
| 2026-04-27 02:12 | 28.73104 | -105.95628 | 4704 ft | 92 kts | 203° |
| 2026-04-27 02:12 | 28.72511 | -105.95849 | 4572 ft | 87 kts | 197° |
| 2026-04-27 02:12 | 28.71949 | -105.95995 | 4476 ft | 79 kts | 191° |
| 2026-04-27 02:13 | 28.71434 | -105.96106 | 4415 ft | 64 kts | 191° |
| 2026-04-27 02:13 | 28.71093 | -105.96181 | 4419 ft | 34 kts | 191° |
| 2026-04-27 02:13 | 28.71024 | -105.96196 | 4421 ft | 19 kts | 189° |
| 2026-04-27 02:13 | 28.70781 | -105.96256 | 4428 ft | 43 kts | 204° |
| 2026-04-27 02:14 | 28.70513 | -105.96480 | 4433 ft | 32 kts | 221° |
| 2026-04-27 02:14 | 28.70470 | -105.96543 | 4434 ft | 21 kts | 247° |
| 2026-04-27 02:14 | 28.70327 | -105.96742 | 4437 ft | 41 kts | 228° |
| 2026-04-27 02:14 | 28.70153 | -105.96842 | 4442 ft | 10 kts | 162° |
| 2026-04-27 02:15 | 28.70144 | -105.96833 | 4442 ft | 0 kts | 134° |